Terminal Aerodrome Forecast
Issued by NWS

Home | Current Version | Previous Version | Text Only | Print | Product List | Glossary On
Versions: 1 2 3 4 5 6 7 8 9 10 11 12 13 14 15 16 17 18 19 20 21 22 23 24 25 26 27 28
000
FTUS43 KAPX 311726
TAFPLN
TAF
KPLN 311726Z 3118/0118 24008KT P6SM FEW020
     FM010000 00000KT P6SM SKC
     FM010900 00000KT 4SM BR OVC008
     FM011500 24006KT P6SM SCT015=

USA.gov is the U.S. government's official web portal to all federal, state and local government web resources and services.